Pagrindinis puslapis
METAR-TAF:

METAR-TAF

Oro uostai :

Quinhagak, Aliaska, Jungtinės Amerikos Valstijos

platuma: 59-45-18N, ilguma: 161-50-43W, Aukštis: 13 m

Dabartinis oras

Ataskaita buvo paskelbta 36 minutes, ne 20:56 UTC
Vėjas 19 kt iš Pietryčių
Temperatūra 8°C
Drėgmė 87%
Slėgis 1001 hPa
Matomumas: 16.1 km
Mažai debesys ne aukštis 2800 ft
Išsisklaidę debesys ne aukštis 4500 ft
Su prošvaistėmis ne aukštis 10000 ft

METAR: PAQH 212056Z AUTO 14019KT 10SM FEW028 SCT045 BKN100 08/06 A2957 RMK AO2 RAE33 SLP013 P0001 60003 T00830061 58016

Laikas: 13:32 (21:32 UTC)


TAF: trūkstamas

Orai ataskaitas ir orų prognozės (METAR, TAF).

turimą stotys yra geltonos ir raudonos taškus žemėlapyje.

Perkelti pele per norėdami pamatyti stoties vardą.

Tada spustelėkite, norėdami matyti oro stebėjimo ir prognozės.

Norėdami pakeisti žemėlapį: spustelėkite ant žalios mygtukų su juodo kryžiaus žemyn,; žalią mygtuką su brūkšneliu, jei norite nutolinti; arba žalių rodyklių gretimoms žemėlapius.


METAR-TAF: